Terminal Aerodrome Forecast
Issued by NWS

Home | Current Version | Previous Version | Text Only | Print | Product List | Glossary On
Versions: 1 2 3 4 5 6 7 8 9 10 11 12 13 14 15 16 17 18 19 20 21 22 23 24 25 26 27
000
FTUS42 KKEY 250520
TAFMTH
TAF
KMTH 250520Z 2506/2606 33005KT P6SM SCT009 SCT020
     FM250900 33003KT 5SM BR BKN009 OVC020
     FM251500 30005KT P6SM SCT009 SCT020
     FM251800 31006KT P6SM FEW020=

USA.gov is the U.S. government's official web portal to all federal, state and local government web resources and services.